sensor_id;sensor_type;location;lat;lon;timestamp;temperature;humidity
39777;DHT22;25453;48.162;14.510;2023-01-29T00:01:50;4.60;71.40
39777;DHT22;25453;48.162;14.510;2023-01-29T00:04:18;4.60;71.40
39777;DHT22;25453;48.162;14.510;2023-01-29T00:06:45;4.60;71.20
39777;DHT22;25453;48.162;14.510;2023-01-29T00:09:12;4.60;71.00
39777;DHT22;25453;48.162;14.510;2023-01-29T00:11:39;4.50;70.80
39777;DHT22;25453;48.162;14.510;2023-01-29T00:14:06;4.50;70.80
39777;DHT22;25453;48.162;14.510;2023-01-29T00:16:33;4.50;71.00
39777;DHT22;25453;48.162;14.510;2023-01-29T00:19:00;4.40;71.10
39777;DHT22;25453;48.162;14.510;2023-01-29T00:21:28;4.50;71.20
39777;DHT22;25453;48.162;14.510;2023-01-29T00:23:57;4.50;71.30
39777;DHT22;25453;48.162;14.510;2023-01-29T00:26:24;4.50;71.30
39777;DHT22;25453;48.162;14.510;2023-01-29T00:28:51;4.50;71.20
39777;DHT22;25453;48.162;14.510;2023-01-29T00:31:20;4.50;71.20
39777;DHT22;25453;48.162;14.510;2023-01-29T00:33:48;4.50;71.20
39777;DHT22;25453;48.162;14.510;2023-01-29T00:36:16;4.50;71.20
39777;DHT22;25453;48.162;14.510;2023-01-29T00:38:43;4.50;71.00
39777;DHT22;25453;48.162;14.510;2023-01-29T00:41:14;4.50;71.00
39777;DHT22;25453;48.162;14.510;2023-01-29T00:44:00;4.50;71.10
39777;DHT22;25453;48.162;14.510;2023-01-29T00:47:00;4.50;71.20
39777;DHT22;25453;48.162;14.510;2023-01-29T00:49:27;4.50;71.10
39777;DHT22;25453;48.162;14.510;2023-01-29T00:51:55;4.50;71.00
39777;DHT22;25453;48.162;14.510;2023-01-29T00:54:41;4.40;71.10
39777;DHT22;25453;48.162;14.510;2023-01-29T00:57:08;4.50;71.00
39777;DHT22;25453;48.162;14.510;2023-01-29T00:59:35;4.50;71.00
39777;DHT22;25453;48.162;14.510;2023-01-29T01:02:01;4.40;70.80
39777;DHT22;25453;48.162;14.510;2023-01-29T01:04:47;4.40;70.80
39777;DHT22;25453;48.162;14.510;2023-01-29T01:07:14;4.30;70.80
39777;DHT22;25453;48.162;14.510;2023-01-29T01:09:41;4.30;70.80
39777;DHT22;25453;48.162;14.510;2023-01-29T01:12:27;4.20;70.80
39777;DHT22;25453;48.162;14.510;2023-01-29T01:14:54;4.20;70.90
39777;DHT22;25453;48.162;14.510;2023-01-29T01:17:21;4.20;71.00
39777;DHT22;25453;48.162;14.510;2023-01-29T01:19:48;4.10;71.00
39777;DHT22;25453;48.162;14.510;2023-01-29T01:22:15;4.10;71.00
39777;DHT22;25453;48.162;14.510;2023-01-29T01:24:42;4.10;71.00
39777;DHT22;25453;48.162;14.510;2023-01-29T01:27:09;4.00;71.00
39777;DHT22;25453;48.162;14.510;2023-01-29T01:29:36;4.00;71.00
39777;DHT22;25453;48.162;14.510;2023-01-29T01:32:03;4.00;71.10
39777;DHT22;25453;48.162;14.510;2023-01-29T01:34:30;4.00;71.20
39777;DHT22;25453;48.162;14.510;2023-01-29T01:36:57;4.00;71.30
39777;DHT22;25453;48.162;14.510;2023-01-29T01:39:24;4.00;71.30
39777;DHT22;25453;48.162;14.510;2023-01-29T01:41:51;4.00;71.40
39777;DHT22;25453;48.162;14.510;2023-01-29T01:47:06;4.00;71.50
39777;DHT22;25453;48.162;14.510;2023-01-29T01:49:33;4.10;71.60
39777;DHT22;25453;48.162;14.510;2023-01-29T01:52:00;4.10;71.50
39777;DHT22;25453;48.162;14.510;2023-01-29T01:54:27;4.10;71.30
39777;DHT22;25453;48.162;14.510;2023-01-29T01:56:56;4.10;71.10
39777;DHT22;25453;48.162;14.510;2023-01-29T01:59:35;4.10;71.00
39777;DHT22;25453;48.162;14.510;2023-01-29T02:02:03;4.00;71.20
39777;DHT22;25453;48.162;14.510;2023-01-29T02:04:49;4.00;71.20
39777;DHT22;25453;48.162;14.510;2023-01-29T02:07:35;4.00;71.10
39777;DHT22;25453;48.162;14.510;2023-01-29T02:10:25;4.00;70.90
39777;DHT22;25453;48.162;14.510;2023-01-29T02:12:53;3.90;70.90
39777;DHT22;25453;48.162;14.510;2023-01-29T02:15:20;3.90;71.00
39777;DHT22;25453;48.162;14.510;2023-01-29T02:17:47;3.90;71.10
39777;DHT22;25453;48.162;14.510;2023-01-29T02:20:18;3.90;71.20
39777;DHT22;25453;48.162;14.510;2023-01-29T02:36:26;3.90;71.10
39777;DHT22;25453;48.162;14.510;2023-01-29T02:38:59;3.90;71.30
39777;DHT22;25453;48.162;14.510;2023-01-29T02:42:12;4.00;71.60
39777;DHT22;25453;48.162;14.510;2023-01-29T02:44:19;4.00;71.70
39777;DHT22;25453;48.162;14.510;2023-01-29T02:52:00;4.10;71.10
39777;DHT22;25453;48.162;14.510;2023-01-29T02:54:38;4.10;71.10
39777;DHT22;25453;48.162;14.510;2023-01-29T02:57:14;4.10;70.80
39777;DHT22;25453;48.162;14.510;2023-01-29T02:59:45;4.00;71.10
39777;DHT22;25453;48.162;14.510;2023-01-29T03:02:16;4.10;71.30
39777;DHT22;25453;48.162;14.510;2023-01-29T03:04:50;4.10;71.30
39777;DHT22;25453;48.162;14.510;2023-01-29T03:07:21;4.20;71.30
39777;DHT22;25453;48.162;14.510;2023-01-29T03:10:56;4.20;71.30
39777;DHT22;25453;48.162;14.510;2023-01-29T03:13:00;4.20;71.30
39777;DHT22;25453;48.162;14.510;2023-01-29T03:15:29;4.20;71.30
39777;DHT22;25453;48.162;14.510;2023-01-29T03:17:58;4.20;71.00
39777;DHT22;25453;48.162;14.510;2023-01-29T03:20:35;4.20;70.70
39777;DHT22;25453;48.162;14.510;2023-01-29T03:23:05;4.10;70.60
39777;DHT22;25453;48.162;14.510;2023-01-29T03:25:33;4.00;70.60
39777;DHT22;25453;48.162;14.510;2023-01-29T03:28:20;4.00;70.70
39777;DHT22;25453;48.162;14.510;2023-01-29T03:31:06;3.90;70.70
39777;DHT22;25453;48.162;14.510;2023-01-29T03:33:59;3.90;70.90
39777;DHT22;25453;48.162;14.510;2023-01-29T03:36:38;3.90;71.00
39777;DHT22;25453;48.162;14.510;2023-01-29T03:39:11;3.90;71.10
39777;DHT22;25453;48.162;14.510;2023-01-29T03:41:41;3.90;70.90
39777;DHT22;25453;48.162;14.510;2023-01-29T03:44:11;3.90;70.80
39777;DHT22;25453;48.162;14.510;2023-01-29T03:54:23;3.90;70.90
39777;DHT22;25453;48.162;14.510;2023-01-29T03:57:05;3.90;70.80
39777;DHT22;25453;48.162;14.510;2023-01-29T03:59:48;3.80;70.60
39777;DHT22;25453;48.162;14.510;2023-01-29T04:02:21;3.80;70.70
39777;DHT22;25453;48.162;14.510;2023-01-29T04:04:55;3.80;70.70
39777;DHT22;25453;48.162;14.510;2023-01-29T04:07:23;3.80;70.90
39777;DHT22;25453;48.162;14.510;2023-01-29T04:09:58;3.90;70.90
39777;DHT22;25453;48.162;14.510;2023-01-29T04:12:33;3.90;70.80
39777;DHT22;25453;48.162;14.510;2023-01-29T04:15:02;3.80;70.80
39777;DHT22;25453;48.162;14.510;2023-01-29T04:17:33;3.80;70.90
39777;DHT22;25453;48.162;14.510;2023-01-29T04:20:02;3.90;70.90
39777;DHT22;25453;48.162;14.510;2023-01-29T04:22:31;3.90;71.00
39777;DHT22;25453;48.162;14.510;2023-01-29T04:24:59;3.90;70.90
39777;DHT22;25453;48.162;14.510;2023-01-29T04:35:25;4.00;71.40
39777;DHT22;25453;48.162;14.510;2023-01-29T04:38:11;4.10;71.30
39777;DHT22;25453;48.162;14.510;2023-01-29T04:40:44;4.10;71.00
39777;DHT22;25453;48.162;14.510;2023-01-29T04:43:20;4.10;71.00
39777;DHT22;25453;48.162;14.510;2023-01-29T04:53:36;4.10;71.30
39777;DHT22;25453;48.162;14.510;2023-01-29T04:56:15;4.10;71.20
39777;DHT22;25453;48.162;14.510;2023-01-29T04:58:48;4.20;71.30
39777;DHT22;25453;48.162;14.510;2023-01-29T05:01:18;4.20;71.30
39777;DHT22;25453;48.162;14.510;2023-01-29T05:03:47;4.20;71.30
39777;DHT22;25453;48.162;14.510;2023-01-29T05:06:15;4.20;71.30
39777;DHT22;25453;48.162;14.510;2023-01-29T05:08:43;4.30;71.30
39777;DHT22;25453;48.162;14.510;2023-01-29T05:11:11;4.30;71.30
39777;DHT22;25453;48.162;14.510;2023-01-29T05:13:39;4.30;71.20
39777;DHT22;25453;48.162;14.510;2023-01-29T05:16:09;4.30;71.10
39777;DHT22;25453;48.162;14.510;2023-01-29T05:18:39;4.30;71.00
39777;DHT22;25453;48.162;14.510;2023-01-29T05:21:07;4.30;71.10
39777;DHT22;25453;48.162;14.510;2023-01-29T05:23:34;4.20;70.90
39777;DHT22;25453;48.162;14.510;2023-01-29T05:26:01;4.20;70.80
39777;DHT22;25453;48.162;14.510;2023-01-29T05:28:28;4.20;71.00
39777;DHT22;25453;48.162;14.510;2023-01-29T05:30:55;4.20;70.90
39777;DHT22;25453;48.162;14.510;2023-01-29T05:33:24;4.10;70.90
39777;DHT22;25453;48.162;14.510;2023-01-29T05:35:52;4.10;70.80
39777;DHT22;25453;48.162;14.510;2023-01-29T05:38:19;4.10;70.70
39777;DHT22;25453;48.162;14.510;2023-01-29T05:40:46;4.10;70.70
39777;DHT22;25453;48.162;14.510;2023-01-29T05:43:15;4.10;70.80
39777;DHT22;25453;48.162;14.510;2023-01-29T05:45:42;4.10;71.00
39777;DHT22;25453;48.162;14.510;2023-01-29T05:48:09;4.10;71.10
39777;DHT22;25453;48.162;14.510;2023-01-29T05:50:36;4.10;71.00
39777;DHT22;25453;48.162;14.510;2023-01-29T05:53:03;4.10;70.90
39777;DHT22;25453;48.162;14.510;2023-01-29T05:55:31;4.10;70.90
39777;DHT22;25453;48.162;14.510;2023-01-29T05:57:58;4.10;71.10
39777;DHT22;25453;48.162;14.510;2023-01-29T06:00:25;4.20;71.10
39777;DHT22;25453;48.162;14.510;2023-01-29T06:02:52;4.20;70.90
39777;DHT22;25453;48.162;14.510;2023-01-29T06:05:19;4.10;70.90
39777;DHT22;25453;48.162;14.510;2023-01-29T06:07:46;4.10;70.80
39777;DHT22;25453;48.162;14.510;2023-01-29T06:10:14;4.10;70.70
39777;DHT22;25453;48.162;14.510;2023-01-29T06:12:42;4.00;70.70
39777;DHT22;25453;48.162;14.510;2023-01-29T06:15:11;4.00;70.90
39777;DHT22;25453;48.162;14.510;2023-01-29T06:17:43;4.00;70.90
39777;DHT22;25453;48.162;14.510;2023-01-29T06:20:10;4.00;71.00
39777;DHT22;25453;48.162;14.510;2023-01-29T06:22:37;3.90;71.00
39777;DHT22;25453;48.162;14.510;2023-01-29T06:25:04;4.00;71.20
39777;DHT22;25453;48.162;14.510;2023-01-29T06:27:31;4.00;71.20
39777;DHT22;25453;48.162;14.510;2023-01-29T06:29:58;4.00;71.10
39777;DHT22;25453;48.162;14.510;2023-01-29T06:32:26;4.00;71.20
39777;DHT22;25453;48.162;14.510;2023-01-29T06:34:53;4.00;71.10
39777;DHT22;25453;48.162;14.510;2023-01-29T06:37:19;4.00;71.10
39777;DHT22;25453;48.162;14.510;2023-01-29T06:39:49;4.00;71.30
39777;DHT22;25453;48.162;14.510;2023-01-29T06:42:16;4.00;71.30
39777;DHT22;25453;48.162;14.510;2023-01-29T06:44:44;4.00;71.20
39777;DHT22;25453;48.162;14.510;2023-01-29T06:47:11;4.00;71.10
39777;DHT22;25453;48.162;14.510;2023-01-29T06:49:38;4.00;71.20
39777;DHT22;25453;48.162;14.510;2023-01-29T06:52:05;4.00;71.20
39777;DHT22;25453;48.162;14.510;2023-01-29T06:54:32;4.00;71.00
39777;DHT22;25453;48.162;14.510;2023-01-29T06:56:59;4.00;71.00
39777;DHT22;25453;48.162;14.510;2023-01-29T06:59:26;4.00;71.00
39777;DHT22;25453;48.162;14.510;2023-01-29T07:01:52;4.00;70.90
39777;DHT22;25453;48.162;14.510;2023-01-29T07:04:19;3.90;71.00
39777;DHT22;25453;48.162;14.510;2023-01-29T07:06:47;3.90;71.00
39777;DHT22;25453;48.162;14.510;2023-01-29T07:09:14;4.00;71.00
39777;DHT22;25453;48.162;14.510;2023-01-29T07:11:41;3.90;71.00
39777;DHT22;25453;48.162;14.510;2023-01-29T07:14:08;4.00;70.90
39777;DHT22;25453;48.162;14.510;2023-01-29T07:16:35;3.90;70.90
39777;DHT22;25453;48.162;14.510;2023-01-29T07:19:02;3.90;70.90
39777;DHT22;25453;48.162;14.510;2023-01-29T07:21:29;3.90;71.00
39777;DHT22;25453;48.162;14.510;2023-01-29T07:23:57;3.90;71.00
39777;DHT22;25453;48.162;14.510;2023-01-29T07:26:26;3.90;70.90
39777;DHT22;25453;48.162;14.510;2023-01-29T07:28:53;3.90;71.00
39777;DHT22;25453;48.162;14.510;2023-01-29T07:31:20;3.90;71.10
39777;DHT22;25453;48.162;14.510;2023-01-29T07:33:48;4.00;71.10
39777;DHT22;25453;48.162;14.510;2023-01-29T07:36:15;4.00;71.10
39777;DHT22;25453;48.162;14.510;2023-01-29T07:38:42;4.00;71.00
39777;DHT22;25453;48.162;14.510;2023-01-29T07:41:10;4.00;71.00
39777;DHT22;25453;48.162;14.510;2023-01-29T07:43:37;4.00;71.00
39777;DHT22;25453;48.162;14.510;2023-01-29T07:46:04;4.10;71.10
39777;DHT22;25453;48.162;14.510;2023-01-29T07:48:31;4.10;71.10
39777;DHT22;25453;48.162;14.510;2023-01-29T07:50:58;4.10;71.00
39777;DHT22;25453;48.162;14.510;2023-01-29T07:53:25;4.20;71.00
39777;DHT22;25453;48.162;14.510;2023-01-29T07:55:52;4.20;70.80
39777;DHT22;25453;48.162;14.510;2023-01-29T07:58:20;4.20;70.80
39777;DHT22;25453;48.162;14.510;2023-01-29T08:00:46;4.30;70.70
39777;DHT22;25453;48.162;14.510;2023-01-29T08:03:14;4.30;70.60
39777;DHT22;25453;48.162;14.510;2023-01-29T08:05:42;4.30;70.40
39777;DHT22;25453;48.162;14.510;2023-01-29T08:08:09;4.30;70.20
39777;DHT22;25453;48.162;14.510;2023-01-29T08:10:37;4.30;70.10
39777;DHT22;25453;48.162;14.510;2023-01-29T08:13:04;4.30;69.90
39777;DHT22;25453;48.162;14.510;2023-01-29T08:15:31;4.30;69.70
39777;DHT22;25453;48.162;14.510;2023-01-29T08:18:01;4.30;69.60
39777;DHT22;25453;48.162;14.510;2023-01-29T08:20:28;4.30;69.40
39777;DHT22;25453;48.162;14.510;2023-01-29T08:23:02;4.30;69.40
39777;DHT22;25453;48.162;14.510;2023-01-29T08:25:30;4.30;69.30
39777;DHT22;25453;48.162;14.510;2023-01-29T08:27:57;4.30;69.30
39777;DHT22;25453;48.162;14.510;2023-01-29T08:30:25;4.30;69.20
39777;DHT22;25453;48.162;14.510;2023-01-29T08:32:52;4.30;69.10
39777;DHT22;25453;48.162;14.510;2023-01-29T08:35:19;4.30;68.90
39777;DHT22;25453;48.162;14.510;2023-01-29T08:37:54;4.30;68.90
39777;DHT22;25453;48.162;14.510;2023-01-29T08:40:21;4.30;68.90
39777;DHT22;25453;48.162;14.510;2023-01-29T08:42:48;4.30;68.90
39777;DHT22;25453;48.162;14.510;2023-01-29T08:45:15;4.30;68.80
39777;DHT22;25453;48.162;14.510;2023-01-29T08:47:46;4.30;68.70
39777;DHT22;25453;48.162;14.510;2023-01-29T08:50:13;4.40;68.60
39777;DHT22;25453;48.162;14.510;2023-01-29T08:52:41;4.30;68.50
39777;DHT22;25453;48.162;14.510;2023-01-29T08:55:08;4.30;68.50
39777;DHT22;25453;48.162;14.510;2023-01-29T08:57:36;4.30;68.40
39777;DHT22;25453;48.162;14.510;2023-01-29T09:00:03;4.30;68.40
39777;DHT22;25453;48.162;14.510;2023-01-29T09:02:31;4.30;68.30
39777;DHT22;25453;48.162;14.510;2023-01-29T09:04:58;4.30;68.20
39777;DHT22;25453;48.162;14.510;2023-01-29T09:07:25;4.30;68.00
39777;DHT22;25453;48.162;14.510;2023-01-29T09:09:52;4.40;67.90
39777;DHT22;25453;48.162;14.510;2023-01-29T09:12:19;4.40;67.90
39777;DHT22;25453;48.162;14.510;2023-01-29T09:14:45;4.40;67.90
39777;DHT22;25453;48.162;14.510;2023-01-29T09:17:12;4.40;67.80
39777;DHT22;25453;48.162;14.510;2023-01-29T09:19:39;4.40;67.70
39777;DHT22;25453;48.162;14.510;2023-01-29T09:22:06;4.40;67.60
39777;DHT22;25453;48.162;14.510;2023-01-29T09:24:36;4.50;67.40
39777;DHT22;25453;48.162;14.510;2023-01-29T09:27:04;4.50;67.30
39777;DHT22;25453;48.162;14.510;2023-01-29T09:29:31;4.50;67.10
39777;DHT22;25453;48.162;14.510;2023-01-29T09:32:02;4.50;67.10
39777;DHT22;25453;48.162;14.510;2023-01-29T09:34:30;4.50;67.10
39777;DHT22;25453;48.162;14.510;2023-01-29T09:36:57;4.50;67.00
39777;DHT22;25453;48.162;14.510;2023-01-29T09:39:24;4.50;66.80
39777;DHT22;25453;48.162;14.510;2023-01-29T09:47:25;4.50;66.70
39777;DHT22;25453;48.162;14.510;2023-01-29T09:49:57;4.50;66.60
39777;DHT22;25453;48.162;14.510;2023-01-29T09:52:25;4.50;66.50
39777;DHT22;25453;48.162;14.510;2023-01-29T09:57:55;4.60;66.40
39777;DHT22;25453;48.162;14.510;2023-01-29T10:12:52;4.60;65.50
39777;DHT22;25453;48.162;14.510;2023-01-29T10:15:32;4.60;65.40
39777;DHT22;25453;48.162;14.510;2023-01-29T10:23:06;4.50;65.20
39777;DHT22;25453;48.162;14.510;2023-01-29T10:25:35;4.50;65.00
39777;DHT22;25453;48.162;14.510;2023-01-29T10:28:13;4.50;64.80
39777;DHT22;25453;48.162;14.510;2023-01-29T10:30:43;4.50;64.80
39777;DHT22;25453;48.162;14.510;2023-01-29T10:33:14;4.50;64.80
39777;DHT22;25453;48.162;14.510;2023-01-29T10:35:44;4.50;64.70
39777;DHT22;25453;48.162;14.510;2023-01-29T10:40:47;4.50;64.50
39777;DHT22;25453;48.162;14.510;2023-01-29T10:43:29;4.50;64.40
39777;DHT22;25453;48.162;14.510;2023-01-29T10:46:11;4.50;64.40
39777;DHT22;25453;48.162;14.510;2023-01-29T10:48:43;4.50;64.30
39777;DHT22;25453;48.162;14.510;2023-01-29T10:53:43;4.60;64.10
39777;DHT22;25453;48.162;14.510;2023-01-29T10:56:30;4.60;64.00
39777;DHT22;25453;48.162;14.510;2023-01-29T10:59:05;4.60;63.90
39777;DHT22;25453;48.162;14.510;2023-01-29T11:01:36;4.60;63.80
39777;DHT22;25453;48.162;14.510;2023-01-29T11:04:03;4.60;63.70
39777;DHT22;25453;48.162;14.510;2023-01-29T11:06:33;4.60;63.60
39777;DHT22;25453;48.162;14.510;2023-01-29T11:14:44;4.60;63.10
39777;DHT22;25453;48.162;14.510;2023-01-29T11:17:17;4.60;63.00
39777;DHT22;25453;48.162;14.510;2023-01-29T11:19:46;4.60;63.10
39777;DHT22;25453;48.162;14.510;2023-01-29T11:22:15;4.60;63.00
39777;DHT22;25453;48.162;14.510;2023-01-29T11:24:42;4.60;62.90
39777;DHT22;25453;48.162;14.510;2023-01-29T11:27:13;4.60;62.70
39777;DHT22;25453;48.162;14.510;2023-01-29T11:29:42;4.60;62.60
39777;DHT22;25453;48.162;14.510;2023-01-29T11:32:31;4.60;62.60
39777;DHT22;25453;48.162;14.510;2023-01-29T11:35:00;4.60;62.50
39777;DHT22;25453;48.162;14.510;2023-01-29T11:37:37;4.60;62.30
39777;DHT22;25453;48.162;14.510;2023-01-29T11:42:48;4.60;62.40
39777;DHT22;25453;48.162;14.510;2023-01-29T11:47:55;4.70;62.40
39777;DHT22;25453;48.162;14.510;2023-01-29T11:50:26;4.80;62.30
39777;DHT22;25453;48.162;14.510;2023-01-29T11:52:55;4.80;62.30
39777;DHT22;25453;48.162;14.510;2023-01-29T11:57:52;4.90;62.40
39777;DHT22;25453;48.162;14.510;2023-01-29T12:00:24;4.90;62.40
39777;DHT22;25453;48.162;14.510;2023-01-29T12:05:28;5.10;62.10
39777;DHT22;25453;48.162;14.510;2023-01-29T12:07:56;5.10;61.80
39777;DHT22;25453;48.162;14.510;2023-01-29T12:15:32;5.10;61.30
39777;DHT22;25453;48.162;14.510;2023-01-29T12:20:45;5.10;61.20
39777;DHT22;25453;48.162;14.510;2023-01-29T12:26:05;5.10;60.90
39777;DHT22;25453;48.162;14.510;2023-01-29T12:36:25;5.10;60.10
39777;DHT22;25453;48.162;14.510;2023-01-29T12:38:49;5.00;60.20
39777;DHT22;25453;48.162;14.510;2023-01-29T12:43:48;5.00;60.10
39777;DHT22;25453;48.162;14.510;2023-01-29T12:46:21;5.00;59.90
39777;DHT22;25453;48.162;14.510;2023-01-29T12:48:49;5.00;60.10
39777;DHT22;25453;48.162;14.510;2023-01-29T12:51:17;5.00;60.10
39777;DHT22;25453;48.162;14.510;2023-01-29T12:56:15;5.00;59.80
39777;DHT22;25453;48.162;14.510;2023-01-29T12:58:49;5.00;59.70
39777;DHT22;25453;48.162;14.510;2023-01-29T13:03:46;5.00;59.80
39777;DHT22;25453;48.162;14.510;2023-01-29T13:06:15;5.00;59.80
39777;DHT22;25453;48.162;14.510;2023-01-29T13:11:40;5.00;59.80
39777;DHT22;25453;48.162;14.510;2023-01-29T13:14:21;5.00;59.60
39777;DHT22;25453;48.162;14.510;2023-01-29T13:16:51;5.00;59.40
39777;DHT22;25453;48.162;14.510;2023-01-29T13:21:56;4.90;59.50
39777;DHT22;25453;48.162;14.510;2023-01-29T13:24:26;4.90;59.50
39777;DHT22;25453;48.162;14.510;2023-01-29T13:26:57;4.90;59.40
39777;DHT22;25453;48.162;14.510;2023-01-29T13:29:24;4.90;59.50
39777;DHT22;25453;48.162;14.510;2023-01-29T13:31:53;4.90;59.30
39777;DHT22;25453;48.162;14.510;2023-01-29T13:34:22;4.80;59.20
39777;DHT22;25453;48.162;14.510;2023-01-29T13:36:51;4.80;59.20
39777;DHT22;25453;48.162;14.510;2023-01-29T13:41:46;4.70;59.30
39777;DHT22;25453;48.162;14.510;2023-01-29T13:44:46;4.70;59.30
39777;DHT22;25453;48.162;14.510;2023-01-29T13:47:06;4.70;59.50
39777;DHT22;25453;48.162;14.510;2023-01-29T13:54:50;4.80;60.00
39777;DHT22;25453;48.162;14.510;2023-01-29T13:57:35;4.80;60.00
39777;DHT22;25453;48.162;14.510;2023-01-29T14:00:03;4.80;59.90
39777;DHT22;25453;48.162;14.510;2023-01-29T14:02:30;4.90;60.00
39777;DHT22;25453;48.162;14.510;2023-01-29T14:10:18;4.80;59.70
39777;DHT22;25453;48.162;14.510;2023-01-29T14:12:50;4.80;59.60
39777;DHT22;25453;48.162;14.510;2023-01-29T14:15:21;4.80;59.60
39777;DHT22;25453;48.162;14.510;2023-01-29T14:17:56;4.70;59.50
39777;DHT22;25453;48.162;14.510;2023-01-29T14:20:28;4.70;59.60
39777;DHT22;25453;48.162;14.510;2023-01-29T14:23:18;4.70;59.60
39777;DHT22;25453;48.162;14.510;2023-01-29T14:25:47;4.70;59.60
39777;DHT22;25453;48.162;14.510;2023-01-29T14:28:25;4.80;59.60
39777;DHT22;25453;48.162;14.510;2023-01-29T14:30:52;4.70;59.50
39777;DHT22;25453;48.162;14.510;2023-01-29T14:33:25;4.80;59.60
39777;DHT22;25453;48.162;14.510;2023-01-29T14:35:53;4.70;59.50
39777;DHT22;25453;48.162;14.510;2023-01-29T14:38:22;4.70;59.40
39777;DHT22;25453;48.162;14.510;2023-01-29T14:40:50;4.70;59.50
39777;DHT22;25453;48.162;14.510;2023-01-29T14:43:27;4.70;59.30
39777;DHT22;25453;48.162;14.510;2023-01-29T14:45:54;4.70;59.50
39777;DHT22;25453;48.162;14.510;2023-01-29T14:48:45;4.70;59.50
39777;DHT22;25453;48.162;14.510;2023-01-29T14:51:14;4.70;59.60
39777;DHT22;25453;48.162;14.510;2023-01-29T14:53:43;4.70;59.60
39777;DHT22;25453;48.162;14.510;2023-01-29T14:56:20;4.70;59.60
39777;DHT22;25453;48.162;14.510;2023-01-29T14:58:48;4.70;59.50
39777;DHT22;25453;48.162;14.510;2023-01-29T15:01:36;4.70;59.50
39777;DHT22;25453;48.162;14.510;2023-01-29T15:04:04;4.70;59.60
39777;DHT22;25453;48.162;14.510;2023-01-29T15:06:34;4.70;59.60
39777;DHT22;25453;48.162;14.510;2023-01-29T15:09:15;4.70;59.70
39777;DHT22;25453;48.162;14.510;2023-01-29T15:11:47;4.70;59.80
39777;DHT22;25453;48.162;14.510;2023-01-29T15:16:53;4.80;59.80
39777;DHT22;25453;48.162;14.510;2023-01-29T15:19:25;4.80;59.80
39777;DHT22;25453;48.162;14.510;2023-01-29T15:22:00;4.70;59.80
39777;DHT22;25453;48.162;14.510;2023-01-29T15:24:28;4.80;59.90
39777;DHT22;25453;48.162;14.510;2023-01-29T15:26:55;4.80;59.90
39777;DHT22;25453;48.162;14.510;2023-01-29T15:29:24;4.80;59.90
39777;DHT22;25453;48.162;14.510;2023-01-29T15:31:53;4.80;59.80
39777;DHT22;25453;48.162;14.510;2023-01-29T15:34:20;4.70;59.90
39777;DHT22;25453;48.162;14.510;2023-01-29T15:36:47;4.70;59.90
39777;DHT22;25453;48.162;14.510;2023-01-29T15:41:42;4.70;59.90
39777;DHT22;25453;48.162;14.510;2023-01-29T15:44:13;4.70;59.90
39777;DHT22;25453;48.162;14.510;2023-01-29T15:46:43;4.70;59.90
39777;DHT22;25453;48.162;14.510;2023-01-29T15:49:14;4.70;60.00
39777;DHT22;25453;48.162;14.510;2023-01-29T15:51:45;4.70;59.90
39777;DHT22;25453;48.162;14.510;2023-01-29T15:54:13;4.70;59.90
39777;DHT22;25453;48.162;14.510;2023-01-29T15:56:45;4.70;60.00
39777;DHT22;25453;48.162;14.510;2023-01-29T15:59:15;4.70;60.00
39777;DHT22;25453;48.162;14.510;2023-01-29T16:01:42;4.70;59.80
39777;DHT22;25453;48.162;14.510;2023-01-29T16:04:10;4.70;59.70
39777;DHT22;25453;48.162;14.510;2023-01-29T16:06:39;4.60;59.80
39777;DHT22;25453;48.162;14.510;2023-01-29T16:09:06;4.60;59.90
39777;DHT22;25453;48.162;14.510;2023-01-29T16:11:33;4.60;59.80
39777;DHT22;25453;48.162;14.510;2023-01-29T16:14:01;4.60;59.90
39777;DHT22;25453;48.162;14.510;2023-01-29T16:16:28;4.60;59.90
39777;DHT22;25453;48.162;14.510;2023-01-29T16:18:55;4.60;60.00
39777;DHT22;25453;48.162;14.510;2023-01-29T16:21:33;4.60;60.00
39777;DHT22;25453;48.162;14.510;2023-01-29T16:26:33;4.70;60.00
39777;DHT22;25453;48.162;14.510;2023-01-29T16:29:08;4.70;60.00
39777;DHT22;25453;48.162;14.510;2023-01-29T16:31:36;4.70;60.00
39777;DHT22;25453;48.162;14.510;2023-01-29T16:34:24;4.70;59.90
39777;DHT22;25453;48.162;14.510;2023-01-29T16:36:51;4.70;60.00
39777;DHT22;25453;48.162;14.510;2023-01-29T16:41:59;4.70;60.10
39777;DHT22;25453;48.162;14.510;2023-01-29T16:44:36;4.70;60.10
39777;DHT22;25453;48.162;14.510;2023-01-29T16:47:10;4.70;60.10
39777;DHT22;25453;48.162;14.510;2023-01-29T16:52:15;4.70;60.10
39777;DHT22;25453;48.162;14.510;2023-01-29T16:54:46;4.70;60.10
39777;DHT22;25453;48.162;14.510;2023-01-29T16:57:14;4.80;61.50
39777;DHT22;25453;48.162;14.510;2023-01-29T16:59:42;5.00;61.80
39777;DHT22;25453;48.162;14.510;2023-01-29T17:02:27;5.00;60.90
39777;DHT22;25453;48.162;14.510;2023-01-29T17:04:56;5.00;60.60
39777;DHT22;25453;48.162;14.510;2023-01-29T17:07:24;5.00;60.50
39777;DHT22;25453;48.162;14.510;2023-01-29T17:09:52;4.90;60.40
39777;DHT22;25453;48.162;14.510;2023-01-29T17:12:21;4.90;60.40
39777;DHT22;25453;48.162;14.510;2023-01-29T17:14:55;4.90;60.30
39777;DHT22;25453;48.162;14.510;2023-01-29T17:17:30;4.90;60.40
39777;DHT22;25453;48.162;14.510;2023-01-29T17:19:58;4.80;60.40
39777;DHT22;25453;48.162;14.510;2023-01-29T17:22:29;4.80;60.40
39777;DHT22;25453;48.162;14.510;2023-01-29T17:24:56;4.80;60.40
39777;DHT22;25453;48.162;14.510;2023-01-29T17:27:23;4.70;60.40
39777;DHT22;25453;48.162;14.510;2023-01-29T17:29:50;4.70;60.50
39777;DHT22;25453;48.162;14.510;2023-01-29T17:32:19;4.80;60.60
39777;DHT22;25453;48.162;14.510;2023-01-29T17:34:46;4.80;60.50
39777;DHT22;25453;48.162;14.510;2023-01-29T17:37:14;4.80;60.50
39777;DHT22;25453;48.162;14.510;2023-01-29T17:39:41;4.70;60.50
39777;DHT22;25453;48.162;14.510;2023-01-29T17:42:12;4.80;60.70
39777;DHT22;25453;48.162;14.510;2023-01-29T17:44:40;4.70;60.60
39777;DHT22;25453;48.162;14.510;2023-01-29T17:47:11;4.70;60.60
39777;DHT22;25453;48.162;14.510;2023-01-29T17:49:38;4.70;60.50
39777;DHT22;25453;48.162;14.510;2023-01-29T17:52:05;4.70;61.10
39777;DHT22;25453;48.162;14.510;2023-01-29T17:54:32;4.70;60.80
39777;DHT22;25453;48.162;14.510;2023-01-29T17:56:59;4.70;60.70
39777;DHT22;25453;48.162;14.510;2023-01-29T17:59:30;4.70;60.70
39777;DHT22;25453;48.162;14.510;2023-01-29T18:01:57;4.70;60.80
39777;DHT22;25453;48.162;14.510;2023-01-29T18:04:25;4.70;61.00
39777;DHT22;25453;48.162;14.510;2023-01-29T18:06:52;4.70;60.80
39777;DHT22;25453;48.162;14.510;2023-01-29T18:09:20;4.70;60.80
39777;DHT22;25453;48.162;14.510;2023-01-29T18:11:47;4.70;60.80
39777;DHT22;25453;48.162;14.510;2023-01-29T18:14:15;4.60;61.00
39777;DHT22;25453;48.162;14.510;2023-01-29T18:16:43;4.70;61.20
39777;DHT22;25453;48.162;14.510;2023-01-29T18:19:20;4.70;61.10